Time;durP1;ratioP1;P1;durP2;ratioP2;P2;SDS_P1;SDS_P2;PMS_P1;PMS_P2;Temp;Humidity;BMP_temperature;BMP_pressure;BME280_temperature;BME280_humidity;BME280_pressure;Samples;Min_cycle;Max_cycle;Signal;HPM_P1;HPM_P2
2023/12/02 00:02:02;;;;;;;52.53;22.00;;;-3.00;99.90;;;;;;4963500;28;37270;-77
2023/12/02 00:04:28;;;;;;;61.10;22.47;;;-3.00;99.90;;;;;;4948076;28;38205;-77
2023/12/02 00:06:54;;;;;;;55.63;21.80;;;-3.00;99.90;;;;;;4953580;28;37398;-76
2023/12/02 00:09:20;;;;;;;48.20;20.40;;;-2.90;99.90;;;;;;4949019;28;37203;-76
2023/12/02 00:11:50;;;;;;;51.70;21.10;;;-2.90;99.90;;;;;;4960919;28;37448;-77
2023/12/02 00:14:17;;;;;;;57.13;23.47;;;-2.80;99.90;;;;;;4962572;28;38777;-76
2023/12/02 00:16:45;;;;;;;54.63;22.63;;;-2.70;99.90;;;;;;4960502;28;38106;-77
2023/12/02 00:19:11;;;;;;;48.83;22.67;;;-2.60;99.90;;;;;;4945616;28;38586;-77
2023/12/02 00:21:38;;;;;;;56.63;23.50;;;-2.60;99.90;;;;;;4959213;28;36276;-78
2023/12/02 00:24:04;;;;;;;55.20;23.10;;;-2.60;99.90;;;;;;4948303;28;38012;-76
2023/12/02 00:26:30;;;;;;;56.07;24.33;;;-2.50;99.90;;;;;;4943518;28;37594;-75
2023/12/02 00:28:59;;;;;;;48.27;20.47;;;-2.50;99.90;;;;;;4964208;28;37508;-76
2023/12/02 00:31:28;;;;;;;59.80;23.57;;;-2.40;99.90;;;;;;4953130;28;37374;-76
2023/12/02 00:33:57;;;;;;;51.87;21.70;;;-2.30;99.90;;;;;;4946139;28;37326;-77
2023/12/02 00:36:23;;;;;;;55.83;23.57;;;-2.30;99.90;;;;;;4976866;28;39266;-76
2023/12/02 00:38:50;;;;;;;62.90;23.80;;;-2.20;99.90;;;;;;4973366;28;38400;-76
2023/12/02 00:41:16;;;;;;;65.00;25.77;;;-2.20;99.90;;;;;;4954503;28;35832;-76
2023/12/02 00:43:42;;;;;;;61.63;26.57;;;-2.20;99.90;;;;;;4945169;28;39009;-76
2023/12/02 00:46:08;;;;;;;57.57;23.77;;;-2.20;99.90;;;;;;4956050;28;39543;-76
2023/12/02 00:48:34;;;;;;;55.97;24.13;;;-2.10;99.90;;;;;;4960668;28;37414;-76
2023/12/02 00:51:00;;;;;;;61.47;26.10;;;-2.10;99.90;;;;;;4943459;28;38030;-77
2023/12/02 00:53:26;;;;;;;64.43;26.33;;;-2.00;99.90;;;;;;4958653;28;39705;-77
2023/12/02 00:55:52;;;;;;;66.93;27.93;;;-2.00;99.90;;;;;;4953012;28;38473;-77
2023/12/02 00:58:22;;;;;;;55.80;24.70;;;-1.90;99.90;;;;;;4940987;28;37282;-77
2023/12/02 01:00:51;;;;;;;61.10;23.57;;;-1.90;99.90;;;;;;4960728;28;37032;-76
2023/12/02 01:03:17;;;;;;;58.07;24.60;;;-1.80;99.90;;;;;;4963798;28;39173;-76
2023/12/02 01:05:43;;;;;;;53.23;23.80;;;-1.80;99.90;;;;;;4949425;28;37487;-76
2023/12/02 01:08:09;;;;;;;51.00;23.10;;;-1.80;99.90;;;;;;4953991;28;37076;-76
2023/12/02 01:10:35;;;;;;;60.80;24.33;;;-1.70;99.90;;;;;;4970992;28;36093;-76
2023/12/02 01:13:02;;;;;;;67.43;26.50;;;-1.70;99.90;;;;;;4931272;28;37825;-76
2023/12/02 01:15:29;;;;;;;63.27;25.50;;;-1.60;99.90;;;;;;4952065;28;38588;-76
2023/12/02 01:17:56;;;;;;;57.90;24.60;;;-1.60;99.90;;;;;;4967819;28;38924;-76
2023/12/02 01:20:22;;;;;;;56.33;23.30;;;-1.60;99.90;;;;;;4961877;28;37436;-76
2023/12/02 01:22:48;;;;;;;57.07;25.60;;;-1.50;99.90;;;;;;4936877;28;38939;-76
2023/12/02 01:25:14;;;;;;;68.80;28.60;;;-1.50;99.90;;;;;;4962049;28;39191;-76
2023/12/02 01:27:40;;;;;;;59.20;23.40;;;-1.50;99.90;;;;;;4947713;28;37346;-75
2023/12/02 01:30:06;;;;;;;58.33;24.57;;;-1.50;99.90;;;;;;4945356;28;37082;-76
2023/12/02 01:32:32;;;;;;;65.93;27.00;;;-1.50;99.90;;;;;;4949079;28;37957;-76
2023/12/02 01:35:00;;;;;;;59.23;25.00;;;-1.40;99.90;;;;;;4938239;28;37199;-75
2023/12/02 01:37:27;;;;;;;68.07;27.07;;;-1.40;99.90;;;;;;4951740;28;37513;-75
2023/12/02 01:39:53;;;;;;;58.43;26.30;;;-1.40;99.90;;;;;;4930715;28;35281;-76
2023/12/02 01:42:19;;;;;;;56.57;24.47;;;-1.40;99.90;;;;;;4958114;28;39849;-76
2023/12/02 01:44:49;;;;;;;60.37;25.67;;;-1.40;99.90;;;;;;4958377;28;39424;-76
2023/12/02 01:47:15;;;;;;;59.43;24.40;;;-1.40;99.90;;;;;;4960708;28;39013;-76
2023/12/02 01:49:43;;;;;;;64.53;24.63;;;-1.30;99.90;;;;;;4948461;28;37393;-76
2023/12/02 01:52:11;;;;;;;71.90;27.00;;;-1.30;99.90;;;;;;4965076;28;39519;-77
2023/12/02 01:54:38;;;;;;;63.13;25.67;;;-1.30;99.90;;;;;;4954700;28;37892;-76
2023/12/02 01:57:05;;;;;;;63.20;24.23;;;-1.20;99.90;;;;;;4947913;28;37805;-76
2023/12/02 01:59:34;;;;;;;60.33;25.67;;;-1.20;99.90;;;;;;4950864;28;36185;-76
2023/12/02 02:04:36;;;;;;;60.47;23.70;;;-1.30;99.90;;;;;;4006690;23;20086;-78
2023/12/02 02:07:02;;;;;;;56.60;25.30;;;-1.20;99.90;;;;;;4924218;28;37055;-79
2023/12/02 02:09:33;;;;;;;71.80;27.80;;;-1.20;99.90;;;;;;4933290;28;37924;-79
2023/12/02 02:12:00;;;;;;;57.53;24.97;;;-1.20;99.90;;;;;;4913304;29;39684;-78
2023/12/02 02:14:26;;;;;;;65.10;27.43;;;-1.20;99.90;;;;;;4934466;28;38246;-78
2023/12/02 02:16:53;;;;;;;59.17;25.23;;;-1.20;99.90;;;;;;4913868;28;37271;-78
2023/12/02 02:19:19;;;;;;;66.20;25.57;;;-1.10;99.90;;;;;;4929631;28;37523;-77
2023/12/02 02:21:45;;;;;;;71.90;28.13;;;-1.10;99.90;;;;;;4914360;29;38126;-79
2023/12/02 02:24:11;;;;;;;65.47;25.80;;;-1.10;99.90;;;;;;4932484;28;38126;-78
2023/12/02 02:26:37;;;;;;;59.60;26.00;;;-1.20;99.90;;;;;;4914280;29;38558;-79
2023/12/02 02:29:03;;;;;;;59.80;24.73;;;-1.20;99.90;;;;;;4915433;28;39340;-79
2023/12/02 02:31:35;;;;;;;62.13;26.17;;;-1.20;99.90;;;;;;4928035;28;38967;-79
2023/12/02 02:34:02;;;;;;;60.78;25.67;;;-1.10;99.90;;;;;;4917234;28;37574;-80
2023/12/02 02:36:28;;;;;;;58.70;24.53;;;-1.10;99.90;;;;;;4919232;28;37545;-79
2023/12/02 02:38:54;;;;;;;56.67;23.77;;;-1.00;99.90;;;;;;4919004;28;37400;-79
2023/12/02 02:41:20;;;;;;;62.20;26.03;;;-1.00;99.90;;;;;;4914504;28;37855;-78
2023/12/02 02:43:46;;;;;;;68.03;26.03;;;-1.00;99.90;;;;;;4920851;29;37390;-79
2023/12/02 02:46:14;;;;;;;59.43;25.10;;;-1.10;99.90;;;;;;4921015;28;37138;-77
2023/12/02 02:48:40;;;;;;;62.23;25.33;;;-1.00;99.90;;;;;;4913481;29;37070;-78
2023/12/02 02:51:07;;;;;;;63.53;25.50;;;-1.00;99.90;;;;;;4923254;28;38011;-79
2023/12/02 02:53:36;;;;;;;58.13;25.77;;;-1.00;99.90;;;;;;4918994;28;37326;-78
2023/12/02 02:56:02;;;;;;;67.93;26.87;;;-1.00;99.90;;;;;;4926251;28;37377;-78
2023/12/02 02:58:29;;;;;;;61.10;25.47;;;-0.90;99.90;;;;;;4915546;29;37283;-78
2023/12/02 03:00:55;;;;;;;63.30;24.23;;;-1.00;99.90;;;;;;4930535;28;38542;-79
2023/12/02 03:03:21;;;;;;;75.83;27.23;;;-0.90;99.90;;;;;;4942408;28;39924;-78
2023/12/02 03:05:48;;;;;;;73.13;27.70;;;-1.00;99.90;;;;;;4937771;28;38597;-78
2023/12/02 03:08:15;;;;;;;66.90;27.07;;;-1.00;99.90;;;;;;4917578;28;36610;-78
2023/12/02 03:10:43;;;;;;;69.10;27.20;;;-0.90;99.90;;;;;;4928242;28;39291;-79
2023/12/02 03:13:09;;;;;;;66.63;25.77;;;-0.80;99.90;;;;;;4920867;28;39623;-78
2023/12/02 03:15:35;;;;;;;64.10;25.40;;;-0.80;99.90;;;;;;4932421;28;39797;-78
2023/12/02 03:18:02;;;;;;;62.03;25.47;;;-0.90;99.90;;;;;;4914793;28;36281;-78
2023/12/02 03:20:29;;;;;;;68.77;28.40;;;-0.90;99.90;;;;;;4910677;28;38958;-78
2023/12/02 03:22:55;;;;;;;58.90;24.33;;;-1.00;99.90;;;;;;4918568;28;37683;-79
2023/12/02 03:25:22;;;;;;;61.83;25.53;;;-1.10;99.90;;;;;;4912372;28;36805;-79
2023/12/02 03:27:48;;;;;;;59.50;24.87;;;-1.20;99.90;;;;;;4928680;28;37384;-77
2023/12/02 03:30:17;;;;;;;58.13;24.50;;;-1.20;99.90;;;;;;4914167;28;37781;-78
2023/12/02 03:32:43;;;;;;;64.80;25.67;;;-1.30;99.90;;;;;;4930211;28;37621;-79
2023/12/02 03:35:10;;;;;;;60.07;24.93;;;-1.40;99.90;;;;;;4919259;28;37515;-78
2023/12/02 03:37:37;;;;;;;58.93;23.63;;;-1.40;99.90;;;;;;4934267;28;37623;-78
2023/12/02 03:40:05;;;;;;;67.77;25.70;;;-1.50;99.90;;;;;;4925733;28;37914;-78
2023/12/02 03:42:31;;;;;;;66.30;25.17;;;-1.50;99.90;;;;;;4931261;28;37660;-79
2023/12/02 03:44:57;;;;;;;64.43;24.60;;;-1.60;99.90;;;;;;4925761;28;37194;-77
2023/12/02 03:47:24;;;;;;;63.93;24.50;;;-1.70;99.90;;;;;;4904668;28;36459;-79
2023/12/02 03:49:50;;;;;;;52.23;22.53;;;-1.80;99.90;;;;;;4909950;28;37947;-78
2023/12/02 03:52:16;;;;;;;59.00;24.57;;;-1.80;99.90;;;;;;4909290;28;37174;-81
2023/12/02 03:54:42;;;;;;;68.17;25.33;;;-1.80;99.90;;;;;;4924900;28;37521;-79
2023/12/02 03:57:09;;;;;;;63.57;24.27;;;-1.90;99.90;;;;;;4931980;28;37429;-79
2023/12/02 03:59:39;;;;;;;57.07;25.50;;;-1.90;99.90;;;;;;4933713;28;39435;-79
2023/12/02 04:02:05;;;;;;;60.00;23.97;;;-1.90;99.90;;;;;;4928604;28;38149;-78
2023/12/02 04:04:31;;;;;;;69.60;26.93;;;-2.00;99.90;;;;;;4922847;28;38787;-78
2023/12/02 04:06:57;;;;;;;70.53;25.37;;;-1.90;99.90;;;;;;4915831;28;37365;-78
2023/12/02 04:09:23;;;;;;;70.17;26.67;;;-2.00;99.90;;;;;;4924369;28;39383;-78
2023/12/02 04:11:50;;;;;;;66.70;24.93;;;-2.10;99.90;;;;;;4917360;28;38947;-79
2023/12/02 04:14:16;;;;;;;56.93;23.97;;;-2.10;99.90;;;;;;4925681;28;39035;-79
2023/12/02 04:16:42;;;;;;;63.23;24.53;;;-2.20;99.90;;;;;;4913677;28;36305;-78
2023/12/02 04:19:09;;;;;;;61.20;24.73;;;-2.20;99.90;;;;;;4926401;28;40311;-78
2023/12/02 04:21:36;;;;;;;53.90;24.00;;;-2.20;99.90;;;;;;4930978;28;39521;-79
2023/12/02 04:24:03;;;;;;;76.97;27.83;;;-2.20;99.90;;;;;;4930515;28;38777;-79
2023/12/02 04:26:31;;;;;;;73.17;25.93;;;-2.20;99.90;;;;;;4918135;28;36970;-79
2023/12/02 04:28:57;;;;;;;63.60;26.60;;;-2.20;99.90;;;;;;4939553;28;38775;-79
2023/12/02 04:31:23;;;;;;;66.83;26.13;;;-2.20;99.90;;;;;;4923895;28;39063;-78
2023/12/02 04:33:49;;;;;;;71.00;26.20;;;-2.20;99.90;;;;;;4917260;28;39621;-78
2023/12/02 04:36:15;;;;;;;68.47;26.43;;;-2.20;99.90;;;;;;4914893;28;35880;-80
2023/12/02 04:38:42;;;;;;;66.53;26.40;;;-2.30;99.90;;;;;;4913360;28;40264;-78
2023/12/02 04:41:08;;;;;;;73.73;27.03;;;-2.20;99.90;;;;;;4938467;28;38632;-79
2023/12/02 04:43:35;;;;;;;60.40;25.20;;;-2.20;99.90;;;;;;4930827;28;37943;-78
2023/12/02 04:46:01;;;;;;;76.17;28.03;;;-2.20;99.90;;;;;;4918383;28;36598;-79
2023/12/02 04:48:27;;;;;;;76.37;27.10;;;-2.20;99.90;;;;;;4924417;28;48064;-79
2023/12/02 04:50:55;;;;;;;68.93;27.43;;;-2.30;99.90;;;;;;4950601;28;39911;-79
2023/12/02 04:53:21;;;;;;;67.43;26.30;;;-2.30;99.90;;;;;;4911203;28;37439;-79
2023/12/02 04:55:52;;;;;;;60.83;25.43;;;-2.30;99.90;;;;;;4937378;28;38898;-80
2023/12/02 04:58:19;;;;;;;59.87;24.07;;;-2.30;99.90;;;;;;4923120;29;40135;-78
2023/12/02 05:00:46;;;;;;;58.60;25.13;;;-2.40;99.90;;;;;;4915068;29;37957;-80
2023/12/02 05:03:16;;;;;;;64.97;24.47;;;-2.40;99.90;;;;;;4921984;28;38466;-80
2023/12/02 05:05:44;;;;;;;71.97;26.90;;;-2.50;99.90;;;;;;4916228;29;37101;-78
2023/12/02 05:08:10;;;;;;;61.40;25.10;;;-2.40;99.90;;;;;;4944899;28;38997;-78
2023/12/02 05:10:36;;;;;;;67.17;24.50;;;-2.40;99.90;;;;;;4920683;29;37448;-79
2023/12/02 05:13:02;;;;;;;66.40;25.90;;;-2.50;99.90;;;;;;4917447;28;39542;-78
2023/12/02 05:15:29;;;;;;;68.17;25.70;;;-2.50;99.90;;;;;;4915964;28;36635;-79
2023/12/02 05:17:55;;;;;;;75.03;26.17;;;-2.50;99.90;;;;;;4932702;28;38782;-79
2023/12/02 05:20:21;;;;;;;65.87;27.53;;;-2.50;99.90;;;;;;4920241;28;38049;-79
2023/12/02 05:22:47;;;;;;;56.97;24.90;;;-2.50;99.90;;;;;;4922736;28;37602;-80
2023/12/02 05:25:13;;;;;;;76.03;28.37;;;-2.40;99.90;;;;;;4923639;28;36953;-79
2023/12/02 05:27:39;;;;;;;74.07;27.83;;;-2.50;99.90;;;;;;4942062;28;39256;-79
2023/12/02 05:30:06;;;;;;;74.27;26.90;;;-2.50;99.90;;;;;;4923828;28;37492;-78
2023/12/02 05:32:32;;;;;;;70.13;27.33;;;-2.50;99.90;;;;;;4915944;28;39405;-79
2023/12/02 05:34:59;;;;;;;62.03;24.83;;;-2.40;99.90;;;;;;4918439;28;37461;-79
2023/12/02 05:37:25;;;;;;;69.13;25.97;;;-2.40;99.90;;;;;;4917682;28;38738;-79
2023/12/02 05:39:51;;;;;;;62.50;25.27;;;-2.40;99.90;;;;;;4918363;28;38256;-79
2023/12/02 05:42:17;;;;;;;76.67;28.67;;;-2.40;99.90;;;;;;4913087;28;39003;-79
2023/12/02 05:44:43;;;;;;;60.53;24.50;;;-2.40;99.90;;;;;;4948735;28;38907;-78
2023/12/02 05:47:10;;;;;;;67.83;26.27;;;-2.40;99.90;;;;;;4931360;28;38754;-79
2023/12/02 05:49:36;;;;;;;77.47;27.03;;;-2.40;99.90;;;;;;4926035;28;38145;-79
2023/12/02 05:52:02;;;;;;;68.13;26.43;;;-2.40;99.90;;;;;;4913188;28;37015;-78
2023/12/02 05:54:31;;;;;;;79.97;28.13;;;-2.40;99.90;;;;;;4917782;28;38532;-78
2023/12/02 05:56:57;;;;;;;68.00;27.23;;;-2.50;99.90;;;;;;4913930;28;39789;-78
2023/12/02 05:59:23;;;;;;;69.10;28.73;;;-2.40;99.90;;;;;;4927049;28;37642;-78
2023/12/02 06:01:50;;;;;;;74.00;27.50;;;-2.50;99.90;;;;;;4917195;28;38641;-79
2023/12/02 06:04:16;;;;;;;74.50;28.53;;;-2.40;99.90;;;;;;4922491;28;38951;-78
2023/12/02 06:06:47;;;;;;;79.13;29.77;;;-2.40;99.90;;;;;;4915133;29;41022;-78
2023/12/02 06:09:13;;;;;;;73.63;28.93;;;-2.50;99.90;;;;;;4917214;28;38213;-79
2023/12/02 06:11:40;;;;;;;88.70;29.63;;;-2.40;99.90;;;;;;4924044;29;38806;-80
2023/12/02 06:14:10;;;;;;;75.17;29.13;;;-2.40;99.90;;;;;;4908257;29;36743;-79
2023/12/02 06:16:36;;;;;;;82.63;29.33;;;-2.40;99.90;;;;;;4918219;28;38046;-79
2023/12/02 06:19:02;;;;;;;73.20;28.23;;;-2.40;99.90;;;;;;4911345;28;39236;-79
2023/12/02 06:21:34;;;;;;;71.07;28.10;;;-2.30;99.90;;;;;;4891483;29;36877;-80
2023/12/02 06:24:04;;;;;;;87.45;31.80;;;-2.30;99.90;;;;;;4888850;29;37704;-79
2023/12/02 06:26:30;;;;;;;82.03;30.30;;;-2.30;99.90;;;;;;4872846;29;47703;-80
2023/12/02 06:28:59;;;;;;;83.97;30.60;;;-2.40;99.90;;;;;;4873406;29;38996;-79
2023/12/02 06:31:25;;;;;;;67.90;27.00;;;-2.40;99.90;;;;;;4885371;29;39495;-79
2023/12/02 06:34:00;;;;;;;80.33;30.80;;;-2.40;99.90;;;;;;4877766;29;36115;-79
2023/12/02 06:36:26;;;;;;;84.27;29.87;;;-2.50;99.90;;;;;;4888482;29;39766;-79
2023/12/02 06:38:56;;;;;;;100.57;33.07;;;-2.50;99.90;;;;;;4874928;29;38721;-79
2023/12/02 06:41:22;;;;;;;84.87;31.70;;;-2.40;99.90;;;;;;4886943;29;37405;-79
2023/12/02 06:43:48;;;;;;;74.90;29.07;;;-2.30;99.90;;;;;;4872963;29;39982;-78
2023/12/02 06:46:21;;;;;;;75.37;30.60;;;-2.30;99.90;;;;;;4865907;29;38986;-79
2023/12/02 06:48:51;;;;;;;78.97;31.37;;;-2.20;99.90;;;;;;4887431;29;37487;-78
2023/12/02 06:51:21;;;;;;;85.70;31.23;;;-2.20;99.90;;;;;;4884675;29;37787;-81
2023/12/02 06:53:47;;;;;;;93.70;32.47;;;-2.20;99.90;;;;;;4937166;28;37139;-80
2023/12/02 06:56:21;;;;;;;94.83;33.13;;;-2.20;99.90;;;;;;4927444;28;38816;-79
2023/12/02 06:58:49;;;;;;;82.17;32.03;;;-2.10;99.90;;;;;;4943343;28;39169;-78
2023/12/02 07:01:31;;;;;;;92.63;33.40;;;-2.00;99.90;;;;;;4913445;28;38829;-79
2023/12/02 07:04:00;;;;;;;103.00;35.47;;;-2.00;99.90;;;;;;4926401;28;37863;-79
2023/12/02 07:06:27;;;;;;;99.83;34.87;;;-1.90;99.90;;;;;;4940929;28;38976;-79
2023/12/02 07:08:54;;;;;;;77.40;31.60;;;-1.80;99.90;;;;;;4921234;28;37420;-79
2023/12/02 07:11:21;;;;;;;110.77;35.90;;;-1.80;99.90;;;;;;4947285;28;40209;-79
2023/12/02 07:13:48;;;;;;;79.97;31.40;;;-1.80;99.90;;;;;;4935542;28;37903;-80
2023/12/02 07:16:14;;;;;;;86.67;33.53;;;-1.80;99.90;;;;;;4920631;28;37949;-78
2023/12/02 07:18:41;;;;;;;89.77;33.30;;;-1.90;99.90;;;;;;4915133;28;39769;-80
2023/12/02 07:21:08;;;;;;;105.40;35.37;;;-2.00;99.90;;;;;;4922842;28;37719;-79
2023/12/02 07:23:34;;;;;;;88.10;33.20;;;-2.10;99.90;;;;;;4923128;28;37792;-79
2023/12/02 07:26:04;;;;;;;97.30;35.03;;;-2.00;99.90;;;;;;4917879;28;40352;-78
2023/12/02 07:28:33;;;;;;;93.30;34.87;;;-1.90;99.90;;;;;;4932467;28;49037;-80
2023/12/02 07:30:59;;;;;;;85.47;33.23;;;-1.80;99.90;;;;;;4918383;28;37593;-80
2023/12/02 07:33:26;;;;;;;90.20;35.37;;;-1.90;99.90;;;;;;4915107;29;36610;-78
2023/12/02 07:35:55;;;;;;;93.83;35.13;;;-2.00;99.90;;;;;;4933505;28;38730;-79
2023/12/02 07:38:21;;;;;;;90.13;34.40;;;-1.90;99.90;;;;;;4938543;28;39388;-80
2023/12/02 07:40:47;;;;;;;81.43;34.03;;;-1.90;99.90;;;;;;4924203;28;36835;-79
2023/12/02 07:43:14;;;;;;;102.20;35.03;;;-1.90;99.90;;;;;;4935003;28;38061;-77
2023/12/02 07:45:41;;;;;;;92.00;34.83;;;-2.00;99.90;;;;;;4925092;28;39766;-80
2023/12/02 07:48:08;;;;;;;78.60;31.83;;;-2.00;99.90;;;;;;4914520;28;39786;-80
2023/12/02 07:50:34;;;;;;;79.70;33.47;;;-1.90;99.90;;;;;;4917899;28;37439;-79
2023/12/02 07:53:00;;;;;;;83.53;34.53;;;-2.00;99.90;;;;;;4913602;28;38149;-81
2023/12/02 07:55:26;;;;;;;82.40;32.53;;;-2.10;99.90;;;;;;4913464;29;38601;-79
2023/12/02 07:57:53;;;;;;;91.13;35.00;;;-2.10;99.90;;;;;;4915568;28;39154;-79
2023/12/02 08:00:22;;;;;;;98.07;35.40;;;-2.20;99.90;;;;;;4919537;29;37055;-80
2023/12/02 08:02:48;;;;;;;91.73;34.27;;;-2.20;99.90;;;;;;4911528;29;38434;-80
2023/12/02 08:05:15;;;;;;;103.23;36.57;;;-2.20;99.90;;;;;;4911935;28;40152;-79
2023/12/02 08:07:46;;;;;;;98.80;36.20;;;-2.10;99.90;;;;;;4945837;28;39904;-79
2023/12/02 08:10:12;;;;;;;99.73;36.90;;;-2.10;99.90;;;;;;4914475;28;39241;-81
2023/12/02 08:12:39;;;;;;;105.87;36.67;;;-2.10;99.90;;;;;;4931677;28;37862;-79
2023/12/02 08:15:06;;;;;;;94.83;35.70;;;-2.10;99.90;;;;;;4927462;28;39744;-79
2023/12/02 08:17:32;;;;;;;96.67;36.43;;;-2.10;99.90;;;;;;4918269;28;37821;-80
2023/12/02 08:19:58;;;;;;;103.60;35.97;;;-2.00;99.90;;;;;;4925817;28;37294;-79
2023/12/02 08:22:25;;;;;;;93.47;35.83;;;-2.00;99.90;;;;;;4947647;28;39441;-79
2023/12/02 08:24:52;;;;;;;85.73;33.73;;;-2.00;99.90;;;;;;4918494;28;40685;-79
2023/12/02 08:27:21;;;;;;;78.30;34.07;;;-2.00;99.90;;;;;;4929703;28;38825;-80
2023/12/02 08:29:47;;;;;;;97.57;38.47;;;-2.00;99.90;;;;;;4928066;28;39821;-80
2023/12/02 08:32:13;;;;;;;95.73;35.70;;;-1.90;99.90;;;;;;4916532;28;36457;-79
2023/12/02 08:34:44;;;;;;;89.30;33.97;;;-1.90;99.90;;;;;;4928686;28;37755;-80
2023/12/02 08:37:10;;;;;;;109.80;38.93;;;-1.90;99.90;;;;;;4916883;28;37234;-80
2023/12/02 08:39:37;;;;;;;107.93;39.10;;;-1.80;99.90;;;;;;4922824;29;38447;-79
2023/12/02 08:42:04;;;;;;;101.40;37.23;;;-1.70;99.90;;;;;;4925570;28;39898;-79
2023/12/02 08:44:32;;;;;;;101.87;39.27;;;-1.60;99.90;;;;;;4936558;28;47559;-79
2023/12/02 08:47:00;;;;;;;98.93;38.40;;;-1.60;99.90;;;;;;4928371;28;37616;-79
2023/12/02 08:49:30;;;;;;;92.23;36.40;;;-1.50;99.90;;;;;;4906036;29;37191;-77
2023/12/02 08:51:56;;;;;;;98.07;38.07;;;-1.50;99.90;;;;;;4920409;29;38210;-81
2023/12/02 08:54:22;;;;;;;88.80;36.93;;;-1.50;99.90;;;;;;4931023;28;39129;-79
2023/12/02 08:56:58;;;;;;;112.50;40.90;;;-1.40;99.90;;;;;;4914748;28;37654;-79
2023/12/02 08:59:25;;;;;;;92.93;37.43;;;-1.40;99.90;;;;;;4926052;28;37157;-80
2023/12/02 09:02:00;;;;;;;106.83;39.20;;;-1.30;99.90;;;;;;4935206;28;37841;-79
2023/12/02 09:04:29;;;;;;;91.87;36.00;;;-1.20;99.90;;;;;;4936204;28;39278;-80
2023/12/02 09:06:55;;;;;;;84.30;35.77;;;-1.10;99.90;;;;;;4939139;28;38470;-80
2023/12/02 09:09:21;;;;;;;109.73;41.00;;;-1.10;99.90;;;;;;4916135;28;38361;-79
2023/12/02 09:11:50;;;;;;;97.93;37.87;;;-1.00;99.90;;;;;;4933061;28;36411;-79
2023/12/02 09:14:17;;;;;;;113.70;41.33;;;-0.90;99.90;;;;;;4928727;28;39212;-78
2023/12/02 09:16:50;;;;;;;120.10;43.30;;;-0.80;99.90;;;;;;4908522;28;36710;-78
2023/12/02 09:19:51;;;;;;;112.00;40.27;;;-0.70;99.90;;;;;;4923513;28;38030;-80
2023/12/02 09:22:41;;;;;;;101.20;38.40;;;-0.60;99.90;;;;;;4896457;28;36487;-79
2023/12/02 09:25:11;;;;;;;107.23;40.63;;;-0.50;99.90;;;;;;4919090;28;38702;-79
2023/12/02 09:28:00;;;;;;;93.87;38.23;;;-0.40;99.90;;;;;;4940775;28;37850;-79
2023/12/02 09:30:35;;;;;;;89.10;37.87;;;-0.30;99.90;;;;;;4931964;28;38709;-79
2023/12/02 09:33:06;;;;;;;96.10;39.03;;;-0.30;99.90;;;;;;4931739;28;37313;-79
2023/12/02 09:35:33;;;;;;;112.20;42.20;;;-0.20;99.90;;;;;;4929085;28;40924;-78
2023/12/02 09:38:03;;;;;;;110.07;40.60;;;-0.10;99.90;;;;;;4939327;28;39225;-79
2023/12/02 09:40:42;;;;;;;98.63;39.87;;;0.00;99.90;;;;;;4933724;28;48764;-79
2023/12/02 09:43:14;;;;;;;86.57;37.20;;;0.00;99.90;;;;;;4938213;28;36568;-79
2023/12/02 09:46:09;;;;;;;88.43;38.17;;;0.10;99.90;;;;;;4944803;28;39481;-79
2023/12/02 09:49:09;;;;;;;93.83;38.30;;;0.10;99.90;;;;;;4918766;28;47807;-78
2023/12/02 09:51:38;;;;;;;97.67;38.37;;;0.20;99.90;;;;;;4902876;28;47551;-77
2023/12/02 09:54:16;;;;;;;91.50;38.63;;;0.30;99.90;;;;;;4932324;28;37475;-78
2023/12/02 09:56:51;;;;;;;98.53;38.00;;;0.30;99.90;;;;;;4946757;28;40628;-78
2023/12/02 09:59:44;;;;;;;89.33;37.43;;;0.30;99.90;;;;;;4858773;29;39626;-79
2023/12/02 10:03:07;;;;;;;101.53;39.17;;;0.30;99.90;;;;;;4808252;29;38001;-80
2023/12/02 10:06:04;;;;;;;101.72;40.83;;;0.40;99.90;;;;;;4797125;29;48559;-77
2023/12/02 10:09:09;;;;;;;112.10;41.27;;;0.40;99.90;;;;;;4821527;29;50088;-79
2023/12/02 10:12:17;;;;;;;94.97;38.27;;;0.50;99.90;;;;;;4837530;29;50058;-78
2023/12/02 10:14:48;;;;;;;83.10;35.60;;;0.60;99.90;;;;;;4860110;29;47775;-78
2023/12/02 10:17:17;;;;;;;98.13;39.83;;;0.60;99.90;;;;;;4851961;29;37527;-76
2023/12/02 10:19:55;;;;;;;83.83;36.57;;;0.60;99.90;;;;;;4859062;29;38703;-78
2023/12/02 10:22:23;;;;;;;92.47;38.03;;;0.70;99.90;;;;;;4865784;29;38728;-77
2023/12/02 10:25:04;;;;;;;97.50;41.33;;;0.70;99.90;;;;;;4860681;29;38372;-79
2023/12/02 10:27:35;;;;;;;103.93;40.37;;;0.70;99.90;;;;;;4848777;29;47405;-79
2023/12/02 10:30:01;;;;;;;107.37;41.83;;;0.80;99.90;;;;;;4835132;29;40779;-78
2023/12/02 10:32:39;;;;;;;92.13;39.87;;;0.90;99.90;;;;;;4863956;29;39493;-78
2023/12/02 10:35:31;;;;;;;118.50;42.40;;;1.00;99.90;;;;;;4868563;29;37896;-80
2023/12/02 10:38:55;;;;;;;115.35;44.08;;;1.00;99.90;;;;;;4928983;28;50470;-80
2023/12/02 10:42:12;;;;;;;111.73;43.50;;;1.10;99.90;;;;;;4893141;28;38199;-80
2023/12/02 10:45:24;;;;;;;95.07;38.27;;;1.10;99.90;;;;;;4924098;28;39480;-82
2023/12/02 10:48:33;;;;;;;121.17;44.47;;;1.20;99.90;;;;;;4920167;28;38974;-81
2023/12/02 10:51:26;;;;;;;98.00;41.13;;;1.40;99.90;;;;;;4933048;28;50166;-81
2023/12/02 10:54:23;;;;;;;101.57;41.93;;;1.50;99.90;;;;;;4917402;28;50138;-81
2023/12/02 10:57:20;;;;;;;109.10;41.77;;;1.60;99.90;;;;;;4928942;28;39825;-81
2023/12/02 11:03:25;;;;;;;95.33;40.43;;;1.70;99.90;;;;;;4975890;28;20102;-79
2023/12/02 11:06:08;;;;;;;93.07;40.53;;;1.70;99.90;;;;;;4959628;28;37790;-79
2023/12/02 11:09:04;;;;;;;103.25;42.80;;;1.70;99.90;;;;;;4967057;28;46973;-79
2023/12/02 11:12:04;;;;;;;137.80;48.20;;;1.90;99.90;;;;;;4967839;28;47627;-80
2023/12/02 11:14:39;;;;;;;146.90;50.20;;;1.90;99.90;;;;;;4944228;28;47606;-79
2023/12/02 11:17:33;;;;;;;110.60;45.73;;;2.00;99.90;;;;;;4958158;28;39148;-79
2023/12/02 11:20:22;;;;;;;108.93;44.20;;;2.00;99.90;;;;;;4964808;28;37816;-79
2023/12/02 11:23:13;;;;;;;97.07;42.93;;;2.10;99.90;;;;;;4954397;28;47498;-78
2023/12/02 11:26:01;;;;;;;102.33;45.37;;;2.20;99.90;;;;;;4943639;28;47253;-78
2023/12/02 11:28:58;;;;;;;140.03;49.63;;;2.30;99.90;;;;;;4951963;28;48223;-78
2023/12/02 11:31:53;;;;;;;114.03;46.73;;;2.40;99.90;;;;;;4956625;28;39153;-78
2023/12/02 11:34:48;;;;;;;87.60;40.57;;;2.40;99.90;;;;;;4939239;28;36913;-77
2023/12/02 11:37:54;;;;;;;99.23;44.30;;;2.40;99.90;;;;;;4936479;28;36357;-78
2023/12/02 11:40:22;;;;;;;110.90;45.00;;;2.50;99.90;;;;;;4963966;28;38843;-78
2023/12/02 11:42:58;;;;;;;98.33;44.90;;;2.50;99.90;;;;;;4940909;28;38275;-77
2023/12/02 11:45:35;;;;;;;92.10;43.73;;;2.40;99.90;;;;;;4950032;28;37699;-77
2023/12/02 11:48:26;;;;;;;91.53;40.83;;;2.50;99.90;;;;;;4969790;28;38382;-77
2023/12/02 11:51:26;;;;;;;99.70;42.73;;;2.60;99.90;;;;;;4958283;28;40049;-77
2023/12/02 11:54:34;;;;;;;94.47;41.97;;;2.60;99.90;;;;;;4928051;28;47185;-77
2023/12/02 11:57:24;;;;;;;85.13;40.37;;;2.60;99.90;;;;;;4919810;28;48269;-76
2023/12/02 12:00:15;;;;;;;86.10;40.97;;;2.60;99.90;;;;;;4977308;28;49072;-76
2023/12/02 12:03:05;;;;;;;92.33;40.93;;;2.70;99.90;;;;;;4954812;28;38915;-77
2023/12/02 12:06:02;;;;;;;98.30;43.43;;;2.90;99.90;;;;;;4973696;28;47296;-77
2023/12/02 12:08:41;;;;;;;92.87;41.17;;;2.90;99.90;;;;;;4958817;28;47615;-78
2023/12/02 12:11:16;;;;;;;92.90;39.90;;;3.00;99.90;;;;;;4962980;28;37192;-80
2023/12/02 12:13:46;;;;;;;88.37;41.10;;;3.10;99.90;;;;;;4970683;28;38602;-79
2023/12/02 12:16:13;;;;;;;80.47;36.93;;;3.00;99.90;;;;;;4979079;28;39077;-78
2023/12/02 12:18:39;;;;;;;79.27;37.80;;;3.00;99.90;;;;;;4962389;28;36744;-78
2023/12/02 12:21:05;;;;;;;72.10;36.40;;;2.90;99.90;;;;;;4969294;28;38812;-79
2023/12/02 12:23:35;;;;;;;81.47;39.27;;;2.90;99.90;;;;;;4992805;28;40158;-79
2023/12/02 12:26:05;;;;;;;89.40;39.30;;;2.90;99.90;;;;;;4962180;28;37471;-80
2023/12/02 12:28:38;;;;;;;76.90;36.37;;;3.00;99.90;;;;;;4965725;28;46866;-81
2023/12/02 12:31:09;;;;;;;72.10;36.77;;;3.00;99.90;;;;;;4981080;28;37387;-79
2023/12/02 12:33:40;;;;;;;75.50;37.10;;;3.10;99.90;;;;;;4980172;28;38742;-80
2023/12/02 12:36:09;;;;;;;80.83;38.67;;;3.20;99.90;;;;;;4960155;28;37413;-81
2023/12/02 12:38:38;;;;;;;66.97;33.73;;;3.30;99.90;;;;;;4967399;28;38037;-80
2023/12/02 12:41:10;;;;;;;73.93;35.03;;;3.30;99.90;;;;;;4955574;28;36275;-80
2023/12/02 12:44:00;;;;;;;71.43;34.45;;;3.20;99.90;;;;;;4944535;28;39098;-80
2023/12/02 12:46:31;;;;;;;66.37;32.10;;;3.10;99.90;;;;;;4986837;28;39566;-83
2023/12/02 12:49:27;;;;;;;63.13;32.17;;;2.90;99.90;;;;;;4979032;28;39260;-81
2023/12/02 13:05:44;;;;;;;73.17;33.60;;;3.30;99.90;;;;;;5343430;23;20058;-82
2023/12/02 13:08:29;;;;;;;59.77;30.57;;;3.30;99.90;;;;;;4936425;28;48278;-77
2023/12/02 13:10:58;;;;;;;52.63;28.90;;;3.40;99.90;;;;;;4934251;28;37052;-80